createdAt,value
2023-03-19T00:01:25.204Z,98922.03
2023-03-19T00:03:52.063Z,98922.72
2023-03-19T00:06:18.580Z,98913.72
2023-03-19T00:08:45.108Z,98916.19
2023-03-19T00:11:11.562Z,98922.13
2023-03-19T00:13:37.960Z,98923.72
2023-03-19T00:16:04.388Z,98915.91
2023-03-19T00:18:30.807Z,98919.66
2023-03-19T00:20:57.808Z,98915.59
2023-03-19T00:23:24.240Z,98924.41
2023-03-19T00:25:50.637Z,98922.63
2023-03-19T00:28:18.714Z,98921.34
2023-03-19T00:30:45.568Z,98923.06
2023-03-19T00:33:12.237Z,98924.84
2023-03-19T00:35:38.661Z,98922.72
2023-03-19T00:38:05.498Z,98926.25
2023-03-19T00:40:32.270Z,98925.34
2023-03-19T00:42:58.940Z,98925.75
2023-03-19T00:45:26.585Z,98928.13
2023-03-19T00:47:55.942Z,98933.53
2023-03-19T00:50:22.441Z,98934.31
2023-03-19T00:52:49.081Z,98936.00
2023-03-19T00:55:18.109Z,98933.84
2023-03-19T00:57:44.552Z,98933.88
2023-03-19T01:00:11.047Z,98927.31
2023-03-19T01:02:37.532Z,98927.84
2023-03-19T01:05:03.980Z,98928.19
2023-03-19T01:07:30.460Z,98922.59
2023-03-19T01:09:56.928Z,98918.84
2023-03-19T01:12:23.324Z,98916.28
2023-03-19T01:14:49.755Z,98903.16
2023-03-19T01:17:16.152Z,98908.94
2023-03-19T01:19:42.585Z,98903.16
2023-03-19T01:22:08.972Z,98906.56
2023-03-19T01:24:35.716Z,98903.59
2023-03-19T01:27:02.092Z,98900.56
2023-03-19T01:29:28.495Z,98902.66
2023-03-19T01:31:54.942Z,98907.75
2023-03-19T01:34:21.420Z,98910.38
2023-03-19T01:36:47.973Z,98905.13
2023-03-19T01:39:14.439Z,98912.09
2023-03-19T01:41:41.005Z,98910.53
2023-03-19T01:44:07.406Z,98910.53
2023-03-19T01:46:33.964Z,98912.00
2023-03-19T01:49:00.458Z,98908.31
2023-03-19T01:51:26.958Z,98907.00
2023-03-19T01:53:53.396Z,98909.94
2023-03-19T01:56:19.853Z,98911.03
2023-03-19T01:58:46.520Z,98906.78
2023-03-19T02:01:13.010Z,98899.91
2023-03-19T02:03:39.484Z,98895.09
2023-03-19T02:06:05.940Z,98891.16
2023-03-19T02:08:32.333Z,98886.19
2023-03-19T02:10:58.845Z,98887.88
2023-03-19T02:13:25.284Z,98879.84
2023-03-19T02:15:51.765Z,98886.63
2023-03-19T02:18:18.333Z,98893.13
2023-03-19T02:20:45.001Z,98897.22
2023-03-19T02:23:11.630Z,98894.50
2023-03-19T02:25:38.639Z,98903.63
2023-03-19T02:28:05.296Z,98893.38
2023-03-19T02:30:31.858Z,98903.78
2023-03-19T02:32:58.513Z,98896.69
2023-03-19T02:35:24.997Z,98902.50
2023-03-19T02:37:51.905Z,98897.72
2023-03-19T02:40:18.398Z,98899.41
2023-03-19T02:42:44.770Z,98898.94
2023-03-19T02:45:11.348Z,98905.75
2023-03-19T02:47:37.718Z,98911.84
2023-03-19T02:50:04.137Z,98907.03
2023-03-19T02:52:30.554Z,98904.56
2023-03-19T02:54:57.038Z,98912.59
2023-03-19T02:57:23.405Z,98905.66
2023-03-19T02:59:49.860Z,98909.16
2023-03-19T03:02:16.321Z,98902.19
2023-03-19T03:04:42.854Z,98908.06
2023-03-19T03:07:09.467Z,98902.97
2023-03-19T03:09:35.852Z,98911.00
2023-03-19T03:12:02.302Z,98923.66
2023-03-19T03:14:28.737Z,98927.53
2023-03-19T03:16:55.476Z,98918.22
2023-03-19T03:19:21.866Z,98913.59
2023-03-19T03:21:48.455Z,98922.78
2023-03-19T03:24:15.111Z,98927.56
2023-03-19T03:26:41.575Z,98936.91
2023-03-19T03:29:08.050Z,98935.09
2023-03-19T03:31:34.540Z,98933.44
2023-03-19T03:34:01.007Z,98932.47
2023-03-19T03:36:27.670Z,98940.47
2023-03-19T03:38:54.206Z,98947.72
2023-03-19T03:41:20.679Z,98949.50
2023-03-19T03:43:47.097Z,98952.81
2023-03-19T03:46:13.537Z,98952.66
2023-03-19T03:48:40.057Z,98947.88
2023-03-19T03:51:06.767Z,98939.59
2023-03-19T03:53:33.176Z,98948.03
2023-03-19T03:55:59.601Z,98946.94
2023-03-19T03:58:26.337Z,98948.88
2023-03-19T04:00:53.128Z,98939.56
2023-03-19T04:03:19.593Z,98942.97
2023-03-19T04:05:46.018Z,98947.78
2023-03-19T04:08:12.439Z,98953.88
2023-03-19T04:10:38.823Z,98950.81
2023-03-19T04:13:05.403Z,98959.38
2023-03-19T04:15:32.147Z,98969.78
2023-03-19T04:17:58.576Z,98967.91
2023-03-19T04:20:25.016Z,98972.50
2023-03-19T04:22:51.615Z,98962.66
2023-03-19T04:25:18.003Z,98964.38
2023-03-19T04:27:44.428Z,98961.81
2023-03-19T04:30:10.863Z,98963.78
2023-03-19T04:32:37.324Z,98966.38
2023-03-19T04:35:04.534Z,98961.13
2023-03-19T04:37:30.917Z,98955.22
2023-03-19T04:39:57.352Z,98961.31
2023-03-19T04:42:23.764Z,98965.69
2023-03-19T04:44:50.302Z,98965.06
2023-03-19T04:47:16.742Z,98971.41
2023-03-19T04:49:43.180Z,98972.31
2023-03-19T04:52:10.030Z,98958.41
2023-03-19T04:54:36.571Z,98961.03
2023-03-19T04:57:03.192Z,98964.44
2023-03-19T04:59:29.832Z,98960.03
2023-03-19T05:01:56.220Z,98963.03
2023-03-19T05:04:22.641Z,98956.09
2023-03-19T05:06:49.030Z,98949.91
2023-03-19T05:09:15.585Z,98951.75
2023-03-19T05:11:42.049Z,98952.75
2023-03-19T05:14:08.497Z,98954.53
2023-03-19T05:16:34.922Z,98949.44
2023-03-19T05:19:01.392Z,98957.31
2023-03-19T05:21:27.914Z,98952.44
2023-03-19T05:23:54.354Z,98949.84
2023-03-19T05:26:20.836Z,98942.97
2023-03-19T05:28:48.143Z,98946.34
2023-03-19T05:31:14.635Z,98959.41
2023-03-19T05:33:41.085Z,98956.84
2023-03-19T05:36:07.469Z,98965.06
2023-03-19T05:38:33.911Z,98966.78
2023-03-19T05:41:00.434Z,98956.00
2023-03-19T05:43:26.823Z,98964.06
2023-03-19T05:45:53.311Z,98969.41
2023-03-19T05:48:20.079Z,98969.88
2023-03-19T05:50:46.989Z,98972.13
2023-03-19T05:53:13.457Z,98971.81
2023-03-19T05:55:39.844Z,98970.97
2023-03-19T05:58:06.265Z,98979.97
2023-03-19T06:00:32.923Z,98983.38
2023-03-19T06:02:59.518Z,98990.09
2023-03-19T06:05:25.924Z,98993.41
2023-03-19T06:07:52.402Z,98998.53
2023-03-19T06:10:19.039Z,98996.41
2023-03-19T06:12:45.707Z,99001.78
2023-03-19T06:15:12.159Z,99011.56
2023-03-19T06:17:38.685Z,99010.16
2023-03-19T06:20:05.151Z,99004.13
2023-03-19T06:22:31.599Z,99000.97
2023-03-19T06:24:59.569Z,98994.41
2023-03-19T06:27:26.037Z,99000.22
2023-03-19T06:29:52.456Z,98991.13
2023-03-19T06:32:18.873Z,99005.06
2023-03-19T06:34:45.463Z,99005.00
2023-03-19T06:37:12.248Z,99001.06
2023-03-19T06:39:38.674Z,98997.50
2023-03-19T06:42:05.125Z,99007.91
2023-03-19T06:44:31.580Z,99021.47
2023-03-19T06:46:57.998Z,99021.47
2023-03-19T06:49:24.467Z,99015.00
2023-03-19T06:51:50.899Z,99011.22
2023-03-19T06:54:17.454Z,99026.03
2023-03-19T06:56:43.918Z,99026.00
2023-03-19T06:59:10.357Z,99035.69
2023-03-19T07:01:36.831Z,99033.72
2023-03-19T07:04:03.224Z,99031.63
2023-03-19T07:06:29.644Z,99022.78
2023-03-19T07:08:56.021Z,99013.00
2023-03-19T07:11:22.637Z,99003.66
2023-03-19T07:13:49.009Z,98997.97
2023-03-19T07:16:15.649Z,98997.53
2023-03-19T07:18:42.226Z,99010.66
2023-03-19T07:21:08.740Z,99011.19
2023-03-19T07:23:35.155Z,99023.22
2023-03-19T07:26:01.583Z,99036.69
2023-03-19T07:28:28.072Z,99044.03
2023-03-19T07:30:54.531Z,99051.13
2023-03-19T07:33:20.994Z,99051.50
2023-03-19T07:35:47.419Z,99052.47
2023-03-19T07:38:13.955Z,99056.03
2023-03-19T07:40:45.565Z,99048.28
2023-03-19T07:43:17.930Z,99045.97
2023-03-19T07:45:44.404Z,99055.44
2023-03-19T07:48:10.885Z,99059.78
2023-03-19T07:50:37.583Z,99056.84
2023-03-19T07:53:03.992Z,99074.13
2023-03-19T07:55:30.452Z,99069.94
2023-03-19T07:57:57.118Z,99075.91
2023-03-19T08:00:23.971Z,99071.34
2023-03-19T08:02:50.789Z,99073.03
2023-03-19T08:05:17.310Z,99074.59
2023-03-19T08:07:43.747Z,99071.63
2023-03-19T08:10:10.414Z,99064.69
2023-03-19T08:12:37.720Z,99063.44
2023-03-19T08:15:04.429Z,99060.59
2023-03-19T08:17:30.836Z,99071.59
2023-03-19T08:19:57.357Z,99069.75
2023-03-19T08:22:24.221Z,99085.41
2023-03-19T08:24:53.275Z,99085.66
2023-03-19T08:27:19.654Z,99076.28
2023-03-19T08:29:46.235Z,99077.81
2023-03-19T08:32:12.634Z,99091.47
2023-03-19T08:34:42.936Z,99088.22
2023-03-19T08:37:09.524Z,99092.69
2023-03-19T08:39:38.992Z,99078.38
2023-03-19T08:42:05.876Z,99066.69
2023-03-19T08:44:34.524Z,99064.53
2023-03-19T08:47:01.019Z,99073.22
2023-03-19T08:49:27.455Z,99069.19
2023-03-19T08:51:55.109Z,99069.50
2023-03-19T08:54:23.058Z,99072.94
2023-03-19T08:56:49.961Z,99068.34
2023-03-19T08:59:16.404Z,99067.56
2023-03-19T09:01:42.898Z,99074.19
2023-03-19T09:04:10.504Z,99078.03
2023-03-19T09:06:37.366Z,99077.00
2023-03-19T09:09:04.835Z,99078.00
2023-03-19T09:11:31.359Z,99082.53
2023-03-19T09:13:57.911Z,99079.38
2023-03-19T09:16:24.698Z,99087.88
2023-03-19T09:18:51.399Z,99087.56
2023-03-19T09:21:17.946Z,99095.53
2023-03-19T09:23:44.453Z,99090.75
2023-03-19T09:26:10.894Z,99094.97
2023-03-19T09:28:37.341Z,99091.38
2023-03-19T09:31:04.851Z,99091.44
2023-03-19T09:33:31.915Z,99093.38
2023-03-19T09:35:58.345Z,99091.75
2023-03-19T09:38:24.905Z,99092.34
2023-03-19T09:40:52.001Z,99091.59
2023-03-19T09:43:18.458Z,99089.22
2023-03-19T09:45:44.845Z,99090.31
2023-03-19T09:48:11.465Z,99070.84
2023-03-19T09:50:37.872Z,99072.75
2023-03-19T09:53:04.267Z,99065.00
2023-03-19T09:55:30.703Z,99069.38
2023-03-19T09:57:57.347Z,99075.84
2023-03-19T10:00:23.801Z,99069.41
2023-03-19T10:02:50.460Z,99080.28
2023-03-19T10:05:17.276Z,99075.50
2023-03-19T10:07:43.751Z,99076.34
2023-03-19T10:10:10.302Z,99079.09
2023-03-19T10:12:36.741Z,99074.34
2023-03-19T10:15:03.745Z,99068.00
2023-03-19T10:17:30.201Z,99060.56
2023-03-19T10:19:57.674Z,99063.03
2023-03-19T10:22:24.146Z,99063.78
2023-03-19T10:24:50.894Z,99060.19
2023-03-19T10:27:17.495Z,99062.25
2023-03-19T10:29:43.921Z,99058.31
2023-03-19T10:32:10.939Z,99063.97
2023-03-19T10:34:37.397Z,99057.34
2023-03-19T10:37:04.397Z,99059.69
2023-03-19T10:39:30.870Z,99059.88
2023-03-19T10:41:57.425Z,99064.34
2023-03-19T10:44:23.801Z,99064.13
2023-03-19T10:46:50.375Z,99070.00
2023-03-19T10:49:16.772Z,99077.66
2023-03-19T10:51:43.205Z,99082.16
2023-03-19T10:54:10.662Z,99069.25
2023-03-19T10:56:37.404Z,99069.53
2023-03-19T10:59:04.049Z,99061.59
2023-03-19T11:01:30.527Z,99068.88
2023-03-19T11:03:57.107Z,99058.22
2023-03-19T11:06:24.611Z,99051.69
2023-03-19T11:08:51.105Z,99054.63
2023-03-19T11:11:17.513Z,99053.97
2023-03-19T11:13:44.030Z,99038.50
2023-03-19T11:16:10.492Z,99050.09
2023-03-19T11:18:36.966Z,99058.88
2023-03-19T11:21:03.535Z,99049.84
2023-03-19T11:23:30.026Z,99049.25
2023-03-19T11:25:56.741Z,99053.22
2023-03-19T11:28:26.591Z,99047.84
2023-03-19T11:30:53.203Z,99048.50
2023-03-19T11:33:19.663Z,99039.19
2023-03-19T11:35:46.248Z,99038.91
2023-03-19T11:38:12.749Z,99035.88
2023-03-19T11:40:39.232Z,99028.09
2023-03-19T11:43:05.809Z,99026.34
2023-03-19T11:45:32.438Z,99028.53
2023-03-19T11:47:59.093Z,99023.59
2023-03-19T11:50:25.646Z,99019.03
2023-03-19T11:52:52.060Z,99017.53
2023-03-19T11:55:21.438Z,99006.66
2023-03-19T11:57:49.144Z,99017.06
2023-03-19T12:00:16.013Z,99010.34
2023-03-19T12:02:42.866Z,99008.66
2023-03-19T12:05:09.431Z,99006.47
2023-03-19T12:07:35.977Z,98998.19
2023-03-19T12:10:02.409Z,98996.09
2023-03-19T12:12:28.995Z,98999.38
2023-03-19T12:14:55.552Z,98990.69
2023-03-19T12:17:22.088Z,98992.81
2023-03-19T12:19:48.573Z,99001.47
2023-03-19T12:22:14.975Z,98996.41
2023-03-19T12:24:41.402Z,98987.41
2023-03-19T12:27:07.886Z,98986.50
2023-03-19T12:29:34.746Z,98990.81
2023-03-19T12:32:01.164Z,98993.94
2023-03-19T12:34:27.728Z,98978.47
2023-03-19T12:36:54.502Z,98980.03
2023-03-19T12:39:21.212Z,98971.97
2023-03-19T12:41:47.757Z,98978.13
2023-03-19T12:44:14.697Z,98971.56
2023-03-19T12:46:41.415Z,98970.16
2023-03-19T12:49:08.105Z,98974.28
2023-03-19T12:51:35.016Z,98971.28
2023-03-19T12:54:01.896Z,98978.88
2023-03-19T12:56:28.312Z,98975.25
2023-03-19T12:58:56.870Z,98965.22
2023-03-19T13:01:25.162Z,98963.75
2023-03-19T13:03:51.657Z,98960.13
2023-03-19T13:06:20.401Z,98961.69
2023-03-19T13:08:46.833Z,98954.72
2023-03-19T13:11:13.259Z,98950.56
2023-03-19T13:13:39.746Z,98958.16
2023-03-19T13:16:06.258Z,98953.56
2023-03-19T13:18:32.656Z,98951.34
2023-03-19T13:20:59.072Z,98953.78
2023-03-19T13:23:25.818Z,98953.09
2023-03-19T13:25:52.256Z,98949.03
2023-03-19T13:28:18.760Z,98953.44
2023-03-19T13:30:46.187Z,98954.75
2023-03-19T13:33:12.724Z,98935.97
2023-03-19T13:35:39.336Z,98943.44
2023-03-19T13:38:05.970Z,98946.56
2023-03-19T13:40:32.812Z,98954.31
2023-03-19T13:42:59.381Z,98947.00
2023-03-19T13:45:26.070Z,98950.16
2023-03-19T13:47:53.099Z,98951.16
2023-03-19T13:50:19.807Z,98947.44
2023-03-19T13:52:46.748Z,98946.47
2023-03-19T13:55:13.173Z,98940.25
2023-03-19T13:57:39.663Z,98935.78
2023-03-19T14:00:06.164Z,98936.00
2023-03-19T14:02:32.605Z,98935.84
2023-03-19T14:04:59.354Z,98929.25
2023-03-19T14:07:25.972Z,98932.63
2023-03-19T14:09:52.535Z,98929.41
2023-03-19T14:12:19.031Z,98930.94
2023-03-19T14:14:46.076Z,98928.78
2023-03-19T14:17:13.348Z,98923.16
2023-03-19T14:19:40.617Z,98919.47
2023-03-19T14:22:07.133Z,98918.19
2023-03-19T14:27:20.293Z,98914.34
2023-03-19T14:29:46.774Z,98909.38
2023-03-19T14:32:15.411Z,98900.81
2023-03-19T14:34:42.118Z,98901.66
2023-03-19T14:37:08.972Z,98901.72
2023-03-19T14:39:35.928Z,98903.91
2023-03-19T14:42:02.425Z,98909.22
2023-03-19T14:44:29.074Z,98901.84
2023-03-19T14:46:55.472Z,98903.19
2023-03-19T14:49:21.907Z,98908.75
2023-03-19T14:51:48.598Z,98906.84
2023-03-19T14:54:15.688Z,98908.19
2023-03-19T14:56:44.973Z,98909.00
2023-03-19T14:59:11.633Z,98901.94
2023-03-19T15:01:40.243Z,98903.56
2023-03-19T15:04:06.957Z,98911.56
2023-03-19T15:06:33.827Z,98902.09
2023-03-19T15:09:00.633Z,98905.78
2023-03-19T15:11:27.476Z,98901.09
2023-03-19T15:13:54.172Z,98905.34
2023-03-19T15:16:20.659Z,98901.47
2023-03-19T15:18:47.055Z,98897.50
2023-03-19T15:21:13.569Z,98900.59
2023-03-19T15:23:40.109Z,98905.16
2023-03-19T15:26:06.495Z,98904.28
2023-03-19T15:28:32.917Z,98904.06
2023-03-19T15:31:09.399Z,98908.41
2023-03-19T15:33:43.399Z,98915.84
2023-03-19T15:36:12.453Z,98910.78
2023-03-19T15:38:38.976Z,98916.31
2023-03-19T15:41:05.846Z,98912.47
2023-03-19T15:43:32.623Z,98907.16
2023-03-19T15:45:59.548Z,98910.28
2023-03-19T15:48:26.660Z,98914.13
2023-03-19T15:50:54.566Z,98915.81
2023-03-19T15:53:22.692Z,98916.56
2023-03-19T15:55:50.254Z,98921.84
2023-03-19T15:58:16.962Z,98928.00
2023-03-19T16:00:43.925Z,98926.19
2023-03-19T16:03:10.648Z,98925.16
2023-03-19T16:05:37.783Z,98922.69
2023-03-19T16:08:04.727Z,98923.28
2023-03-19T16:10:33.007Z,98932.38
2023-03-19T16:13:00.328Z,98936.41
2023-03-19T16:15:27.690Z,98938.03
2023-03-19T16:17:54.261Z,98930.09
2023-03-19T16:20:21.891Z,98943.22
2023-03-19T16:22:49.640Z,98941.53
2023-03-19T16:25:17.516Z,98941.06
2023-03-19T16:27:44.926Z,98937.91
2023-03-19T16:30:12.023Z,98947.56
2023-03-19T16:32:40.022Z,98945.75
2023-03-19T16:35:07.074Z,98944.28
2023-03-19T16:37:35.412Z,98944.72
2023-03-19T16:40:02.325Z,98950.44
2023-03-19T16:42:29.310Z,98944.00
2023-03-19T16:44:56.222Z,98943.44
2023-03-19T16:47:22.833Z,98951.94
2023-03-19T16:49:49.958Z,98947.31
2023-03-19T16:52:18.782Z,98955.78
2023-03-19T16:54:45.755Z,98955.56
2023-03-19T16:57:12.741Z,98969.56
2023-03-19T16:59:40.381Z,98961.09
2023-03-19T17:02:07.588Z,98961.53
2023-03-19T17:04:35.374Z,98969.47
2023-03-19T17:07:02.409Z,98974.84
2023-03-19T17:09:29.744Z,98977.59
2023-03-19T17:11:56.798Z,98967.03
2023-03-19T17:14:23.336Z,98969.66
2023-03-19T17:16:52.615Z,98975.47
2023-03-19T17:19:23.618Z,98977.91
2023-03-19T17:21:50.588Z,98970.63
2023-03-19T17:24:17.714Z,98968.91
2023-03-19T17:26:45.690Z,98977.31
2023-03-19T17:29:13.419Z,98980.09
2023-03-19T17:31:40.106Z,98978.44
2023-03-19T17:34:07.445Z,98980.84
2023-03-19T17:36:34.498Z,98985.97
2023-03-19T17:39:01.558Z,98977.34
2023-03-19T17:41:29.242Z,98980.50
2023-03-19T17:43:56.497Z,98982.41
2023-03-19T17:46:23.112Z,98974.16
2023-03-19T17:48:50.367Z,98976.69
2023-03-19T17:51:17.965Z,98973.69
2023-03-19T17:53:45.039Z,98980.25
2023-03-19T17:56:12.124Z,98973.16
2023-03-19T17:58:39.621Z,98981.09
2023-03-19T18:01:06.700Z,98983.38
2023-03-19T18:03:34.087Z,98980.63
2023-03-19T18:06:01.352Z,98977.06
2023-03-19T18:08:29.483Z,98983.00
2023-03-19T18:10:59.546Z,98986.16
2023-03-19T18:13:26.636Z,98988.16
2023-03-19T18:15:53.748Z,98987.66
2023-03-19T18:18:20.766Z,98988.69
2023-03-19T18:20:47.325Z,98980.41
2023-03-19T18:23:14.288Z,98980.97
2023-03-19T18:25:41.291Z,98981.72
2023-03-19T18:28:10.302Z,98974.09
2023-03-19T18:30:37.590Z,98975.59
2023-03-19T18:33:04.847Z,98975.19
2023-03-19T18:35:40.627Z,98979.19
2023-03-19T18:38:08.693Z,98970.38
2023-03-19T18:40:35.829Z,98978.84
2023-03-19T18:43:03.176Z,98980.94
2023-03-19T18:45:30.129Z,98982.03
2023-03-19T18:47:57.573Z,98984.84
2023-03-19T18:50:24.997Z,98984.84
2023-03-19T18:52:52.110Z,98987.56
2023-03-19T18:55:19.061Z,98982.56
2023-03-19T18:57:53.386Z,98986.59
2023-03-19T19:00:21.264Z,98980.56
2023-03-19T19:02:48.293Z,98984.56
2023-03-19T19:05:16.383Z,98993.56
2023-03-19T19:07:52.746Z,98994.72
2023-03-19T19:10:21.789Z,98991.31
2023-03-19T19:12:52.388Z,98988.00
2023-03-19T19:15:19.547Z,98994.38
2023-03-19T19:17:46.158Z,98990.31
2023-03-19T19:20:13.144Z,98995.59
2023-03-19T19:22:39.753Z,98999.84
2023-03-19T19:25:07.122Z,98992.69
2023-03-19T19:27:35.344Z,99002.84
2023-03-19T19:30:02.396Z,99004.75
2023-03-19T19:32:29.445Z,99001.75
2023-03-19T19:34:56.574Z,99004.75
2023-03-19T19:37:24.043Z,99006.25
2023-03-19T19:39:51.941Z,99005.31
2023-03-19T19:42:18.663Z,99017.03
2023-03-19T19:44:45.682Z,99015.69
2023-03-19T19:47:13.957Z,99010.81
2023-03-19T19:49:41.008Z,99012.31
2023-03-19T19:52:10.325Z,99005.41
2023-03-19T19:54:37.167Z,99014.91
2023-03-19T19:57:04.170Z,99022.28
2023-03-19T19:59:32.504Z,99017.78
2023-03-19T20:01:59.609Z,99016.28
2023-03-19T20:04:28.663Z,99012.69
2023-03-19T20:06:57.515Z,99011.75
2023-03-19T20:09:24.853Z,99017.97
2023-03-19T20:11:52.074Z,99016.47
2023-03-19T20:14:21.393Z,99015.78
2023-03-19T20:16:50.897Z,99017.78
2023-03-19T20:19:17.832Z,99014.19
2023-03-19T20:21:57.864Z,99020.03
2023-03-19T20:24:26.269Z,99014.56
2023-03-19T20:26:53.430Z,99024.84
2023-03-19T20:29:20.059Z,99018.13
2023-03-19T20:31:47.006Z,99019.09
2023-03-19T20:34:36.606Z,99028.66
2023-03-19T20:37:08.597Z,99025.91
2023-03-19T20:39:36.904Z,99030.25
2023-03-19T20:42:05.901Z,99027.06
2023-03-19T20:44:33.163Z,99030.25
2023-03-19T20:47:01.829Z,99027.34
2023-03-19T20:49:28.468Z,99027.91
2023-03-19T20:51:56.134Z,99021.47
2023-03-19T20:54:24.727Z,99017.44
2023-03-19T20:56:54.376Z,99021.00
2023-03-19T20:59:21.668Z,99024.78
2023-03-19T21:01:53.899Z,99028.63
2023-03-19T21:04:20.925Z,99022.69
2023-03-19T21:06:53.889Z,99024.56
2023-03-19T21:09:21.160Z,99023.94
2023-03-19T21:11:48.201Z,99026.75
2023-03-19T21:14:15.219Z,99025.91
2023-03-19T21:16:42.353Z,99027.03
2023-03-19T21:19:09.565Z,99022.50
2023-03-19T21:21:38.364Z,99017.44
2023-03-19T21:24:09.183Z,99021.56
2023-03-19T21:26:36.211Z,99023.81
2023-03-19T21:29:03.195Z,99018.28
2023-03-19T21:31:30.439Z,99020.59
2023-03-19T21:33:58.478Z,99024.03
2023-03-19T21:36:25.797Z,99022.31
2023-03-19T21:38:52.852Z,99023.28
2023-03-19T21:41:19.390Z,99012.91
2023-03-19T21:43:46.221Z,99009.50
2023-03-19T21:46:23.613Z,99027.84
2023-03-19T21:48:51.279Z,99026.66
2023-03-19T21:51:17.920Z,99025.03
2023-03-19T21:53:44.391Z,99027.69
2023-03-19T21:56:11.014Z,99033.47
2023-03-19T21:58:37.407Z,99038.03
2023-03-19T22:01:03.945Z,99033.63
2023-03-19T22:03:30.421Z,99035.59
2023-03-19T22:05:57.909Z,99034.81
2023-03-19T22:08:24.432Z,99036.69
2023-03-19T22:10:50.935Z,99037.56
2023-03-19T22:13:17.344Z,99028.97
2023-03-19T22:15:43.814Z,99035.19
2023-03-19T22:18:10.275Z,99032.63
2023-03-19T22:20:36.913Z,99031.78
2023-03-19T22:23:03.628Z,99033.47
2023-03-19T22:25:30.030Z,99028.06
2023-03-19T22:27:56.506Z,99036.91
2023-03-19T22:30:22.899Z,99037.00
2023-03-19T22:32:49.509Z,99028.16
2023-03-19T22:35:16.031Z,99035.97
2023-03-19T22:37:42.507Z,99040.13
2023-03-19T22:40:09.233Z,99040.78
2023-03-19T22:42:35.794Z,99031.19
2023-03-19T22:45:02.372Z,99032.22
2023-03-19T22:47:28.769Z,99033.34
2023-03-19T22:50:05.452Z,99029.94
2023-03-19T22:52:31.998Z,99026.53
2023-03-19T22:54:58.899Z,99027.38
2023-03-19T22:57:25.716Z,99030.44
2023-03-19T22:59:52.296Z,99034.50
2023-03-19T23:02:18.739Z,99033.44
2023-03-19T23:04:45.321Z,99033.00
2023-03-19T23:07:11.897Z,99038.25
2023-03-19T23:09:38.430Z,99043.75
2023-03-19T23:12:04.866Z,99046.03
2023-03-19T23:14:31.681Z,99046.03
2023-03-19T23:19:23.733Z,99044.34
2023-03-19T23:21:50.137Z,99044.00
2023-03-19T23:24:16.724Z,99044.69
2023-03-19T23:26:43.386Z,99043.75
2023-03-19T23:29:09.925Z,99035.00
2023-03-19T23:31:36.374Z,99037.56
2023-03-19T23:34:02.912Z,99036.47
2023-03-19T23:36:29.387Z,99042.47
2023-03-19T23:38:56.358Z,99040.16
2023-03-19T23:41:25.865Z,99042.66
2023-03-19T23:43:52.265Z,99035.81
2023-03-19T23:46:18.792Z,99035.81
2023-03-19T23:48:45.232Z,99042.28
2023-03-19T23:51:12.254Z,99034.81
2023-03-19T23:53:38.697Z,99037.47
2023-03-19T23:56:05.788Z,99039.84
2023-03-19T23:58:32.504Z,99039.50
